sensor_id;sensor_type;location;lat;lon;timestamp;P1;durP1;ratioP1;P2;durP2;ratioP2
44670;SDS011;48397;53.016;-2.260;2023-04-16T00:00:34;27.20;;;15.77;;
44670;SDS011;48397;53.016;-2.260;2023-04-16T00:03:02;28.27;;;17.08;;
44670;SDS011;48397;53.016;-2.260;2023-04-16T00:05:30;27.10;;;16.50;;
44670;SDS011;48397;53.016;-2.260;2023-04-16T00:07:57;31.23;;;16.40;;
44670;SDS011;48397;53.016;-2.260;2023-04-16T00:10:25;31.88;;;17.13;;
44670;SDS011;48397;53.016;-2.260;2023-04-16T00:12:53;29.48;;;16.42;;
44670;SDS011;48397;53.016;-2.260;2023-04-16T00:15:21;32.38;;;16.25;;
44670;SDS011;48397;53.016;-2.260;2023-04-16T00:17:49;29.63;;;16.20;;
44670;SDS011;48397;53.016;-2.260;2023-04-16T00:20:17;30.27;;;16.90;;
44670;SDS011;48397;53.016;-2.260;2023-04-16T00:22:46;30.75;;;17.38;;
44670;SDS011;48397;53.016;-2.260;2023-04-16T00:25:14;40.53;;;20.60;;
44670;SDS011;48397;53.016;-2.260;2023-04-16T00:27:41;36.05;;;19.55;;
44670;SDS011;48397;53.016;-2.260;2023-04-16T00:30:09;48.70;;;25.70;;
44670;SDS011;48397;53.016;-2.260;2023-04-16T00:32:37;36.90;;;20.17;;
44670;SDS011;48397;53.016;-2.260;2023-04-16T00:35:04;32.00;;;17.88;;
44670;SDS011;48397;53.016;-2.260;2023-04-16T00:37:33;31.80;;;17.25;;
44670;SDS011;48397;53.016;-2.260;2023-04-16T00:40:00;32.97;;;18.55;;
44670;SDS011;48397;53.016;-2.260;2023-04-16T00:42:28;39.53;;;20.02;;
44670;SDS011;48397;53.016;-2.260;2023-04-16T00:44:55;35.45;;;18.73;;
44670;SDS011;48397;53.016;-2.260;2023-04-16T00:47:23;35.42;;;18.27;;
44670;SDS011;48397;53.016;-2.260;2023-04-16T00:52:18;38.67;;;19.95;;
44670;SDS011;48397;53.016;-2.260;2023-04-16T00:54:46;35.38;;;20.27;;
44670;SDS011;48397;53.016;-2.260;2023-04-16T00:57:14;29.92;;;17.70;;
44670;SDS011;48397;53.016;-2.260;2023-04-16T00:59:42;30.90;;;17.80;;
44670;SDS011;48397;53.016;-2.260;2023-04-16T01:02:09;32.35;;;18.67;;
44670;SDS011;48397;53.016;-2.260;2023-04-16T01:04:38;33.08;;;17.55;;
44670;SDS011;48397;53.016;-2.260;2023-04-16T01:07:06;30.45;;;16.95;;
44670;SDS011;48397;53.016;-2.260;2023-04-16T01:09:33;33.28;;;17.75;;
44670;SDS011;48397;53.016;-2.260;2023-04-16T01:12:02;32.75;;;18.30;;
44670;SDS011;48397;53.016;-2.260;2023-04-16T01:14:30;35.55;;;19.42;;
44670;SDS011;48397;53.016;-2.260;2023-04-16T01:17:02;36.55;;;19.45;;
44670;SDS011;48397;53.016;-2.260;2023-04-16T01:19:30;42.00;;;19.95;;
44670;SDS011;48397;53.016;-2.260;2023-04-16T01:21:57;37.97;;;21.30;;
44670;SDS011;48397;53.016;-2.260;2023-04-16T01:24:25;43.15;;;22.17;;
44670;SDS011;48397;53.016;-2.260;2023-04-16T01:26:53;38.78;;;22.08;;
44670;SDS011;48397;53.016;-2.260;2023-04-16T01:29:20;42.42;;;22.88;;
44670;SDS011;48397;53.016;-2.260;2023-04-16T01:31:49;38.28;;;20.17;;
44670;SDS011;48397;53.016;-2.260;2023-04-16T01:34:36;33.97;;;19.08;;
44670;SDS011;48397;53.016;-2.260;2023-04-16T01:37:03;38.95;;;19.95;;
44670;SDS011;48397;53.016;-2.260;2023-04-16T01:39:31;35.80;;;18.20;;
44670;SDS011;48397;53.016;-2.260;2023-04-16T01:41:59;34.38;;;20.52;;
44670;SDS011;48397;53.016;-2.260;2023-04-16T01:46:54;36.72;;;20.65;;
44670;SDS011;48397;53.016;-2.260;2023-04-16T01:49:22;34.67;;;20.88;;
44670;SDS011;48397;53.016;-2.260;2023-04-16T01:51:49;36.55;;;20.88;;
44670;SDS011;48397;53.016;-2.260;2023-04-16T01:54:17;38.83;;;20.77;;
44670;SDS011;48397;53.016;-2.260;2023-04-16T01:56:45;32.75;;;18.42;;
44670;SDS011;48397;53.016;-2.260;2023-04-16T01:59:12;33.25;;;18.63;;
44670;SDS011;48397;53.016;-2.260;2023-04-16T02:04:09;35.50;;;18.52;;
44670;SDS011;48397;53.016;-2.260;2023-04-16T02:06:38;31.92;;;18.02;;
44670;SDS011;48397;53.016;-2.260;2023-04-16T02:09:06;30.02;;;17.35;;
44670;SDS011;48397;53.016;-2.260;2023-04-16T02:11:35;27.23;;;16.05;;
44670;SDS011;48397;53.016;-2.260;2023-04-16T02:14:03;28.52;;;15.43;;
44670;SDS011;48397;53.016;-2.260;2023-04-16T02:16:31;30.90;;;15.75;;
44670;SDS011;48397;53.016;-2.260;2023-04-16T02:19:08;29.17;;;16.23;;
44670;SDS011;48397;53.016;-2.260;2023-04-16T02:21:37;28.02;;;14.98;;
44670;SDS011;48397;53.016;-2.260;2023-04-16T02:24:04;28.00;;;15.82;;
44670;SDS011;48397;53.016;-2.260;2023-04-16T02:26:33;30.77;;;16.55;;
44670;SDS011;48397;53.016;-2.260;2023-04-16T02:29:06;26.80;;;15.40;;
44670;SDS011;48397;53.016;-2.260;2023-04-16T02:31:40;31.38;;;16.25;;
44670;SDS011;48397;53.016;-2.260;2023-04-16T02:34:09;29.02;;;15.98;;
44670;SDS011;48397;53.016;-2.260;2023-04-16T02:36:37;29.85;;;16.88;;
44670;SDS011;48397;53.016;-2.260;2023-04-16T02:39:05;26.77;;;15.80;;
44670;SDS011;48397;53.016;-2.260;2023-04-16T02:41:33;31.75;;;16.30;;
44670;SDS011;48397;53.016;-2.260;2023-04-16T02:44:00;29.20;;;16.45;;
44670;SDS011;48397;53.016;-2.260;2023-04-16T02:48:56;31.10;;;17.10;;
44670;SDS011;48397;53.016;-2.260;2023-04-16T02:51:23;29.90;;;16.70;;
44670;SDS011;48397;53.016;-2.260;2023-04-16T02:53:52;29.48;;;16.17;;
44670;SDS011;48397;53.016;-2.260;2023-04-16T02:56:19;29.83;;;16.23;;
44670;SDS011;48397;53.016;-2.260;2023-04-16T02:58:47;32.70;;;18.40;;
44670;SDS011;48397;53.016;-2.260;2023-04-16T03:01:15;36.03;;;19.08;;
44670;SDS011;48397;53.016;-2.260;2023-04-16T03:03:44;31.25;;;17.45;;
44670;SDS011;48397;53.016;-2.260;2023-04-16T03:06:11;29.80;;;17.30;;
44670;SDS011;48397;53.016;-2.260;2023-04-16T03:08:39;35.40;;;18.10;;
44670;SDS011;48397;53.016;-2.260;2023-04-16T03:11:07;35.20;;;18.30;;
44670;SDS011;48397;53.016;-2.260;2023-04-16T03:16:02;32.60;;;19.15;;
44670;SDS011;48397;53.016;-2.260;2023-04-16T03:18:30;36.47;;;20.50;;
44670;SDS011;48397;53.016;-2.260;2023-04-16T03:20:58;33.35;;;19.38;;
44670;SDS011;48397;53.016;-2.260;2023-04-16T03:23:25;33.03;;;18.92;;
44670;SDS011;48397;53.016;-2.260;2023-04-16T03:25:54;34.13;;;18.33;;
44670;SDS011;48397;53.016;-2.260;2023-04-16T03:28:21;35.83;;;19.35;;
44670;SDS011;48397;53.016;-2.260;2023-04-16T03:30:50;34.85;;;19.73;;
44670;SDS011;48397;53.016;-2.260;2023-04-16T03:33:20;35.90;;;18.25;;
44670;SDS011;48397;53.016;-2.260;2023-04-16T03:35:53;38.15;;;19.38;;
44670;SDS011;48397;53.016;-2.260;2023-04-16T03:38:24;33.42;;;18.33;;
44670;SDS011;48397;53.016;-2.260;2023-04-16T03:40:55;31.95;;;17.80;;
44670;SDS011;48397;53.016;-2.260;2023-04-16T03:43:22;35.33;;;18.48;;
44670;SDS011;48397;53.016;-2.260;2023-04-16T03:45:50;38.28;;;19.85;;
44670;SDS011;48397;53.016;-2.260;2023-04-16T03:48:21;39.42;;;20.20;;
44670;SDS011;48397;53.016;-2.260;2023-04-16T03:50:48;37.42;;;18.95;;
44670;SDS011;48397;53.016;-2.260;2023-04-16T03:53:18;36.97;;;19.42;;
44670;SDS011;48397;53.016;-2.260;2023-04-16T03:55:51;36.60;;;19.80;;
44670;SDS011;48397;53.016;-2.260;2023-04-16T03:58:19;43.63;;;21.98;;
44670;SDS011;48397;53.016;-2.260;2023-04-16T04:00:47;41.03;;;20.25;;
44670;SDS011;48397;53.016;-2.260;2023-04-16T04:03:16;43.17;;;20.55;;
44670;SDS011;48397;53.016;-2.260;2023-04-16T04:05:47;36.40;;;18.45;;
44670;SDS011;48397;53.016;-2.260;2023-04-16T04:08:20;37.03;;;19.90;;
44670;SDS011;48397;53.016;-2.260;2023-04-16T04:10:48;38.63;;;20.55;;
44670;SDS011;48397;53.016;-2.260;2023-04-16T04:13:18;36.30;;;18.88;;
44670;SDS011;48397;53.016;-2.260;2023-04-16T04:15:50;41.63;;;20.13;;
44670;SDS011;48397;53.016;-2.260;2023-04-16T04:18:19;39.22;;;20.33;;
44670;SDS011;48397;53.016;-2.260;2023-04-16T04:20:46;41.80;;;20.75;;
44670;SDS011;48397;53.016;-2.260;2023-04-16T04:23:16;43.40;;;20.80;;
44670;SDS011;48397;53.016;-2.260;2023-04-16T04:25:45;37.40;;;19.50;;
44670;SDS011;48397;53.016;-2.260;2023-04-16T04:28:13;39.05;;;20.42;;
44670;SDS011;48397;53.016;-2.260;2023-04-16T04:30:40;42.40;;;21.33;;
44670;SDS011;48397;53.016;-2.260;2023-04-16T04:33:08;45.08;;;21.65;;
44670;SDS011;48397;53.016;-2.260;2023-04-16T04:35:37;37.88;;;20.05;;
44670;SDS011;48397;53.016;-2.260;2023-04-16T04:38:05;42.17;;;21.48;;
44670;SDS011;48397;53.016;-2.260;2023-04-16T04:40:33;39.10;;;21.42;;
44670;SDS011;48397;53.016;-2.260;2023-04-16T04:43:02;46.47;;;21.63;;
44670;SDS011;48397;53.016;-2.260;2023-04-16T04:45:30;44.38;;;21.85;;
44670;SDS011;48397;53.016;-2.260;2023-04-16T04:50:25;47.42;;;23.58;;
44670;SDS011;48397;53.016;-2.260;2023-04-16T04:52:53;50.35;;;25.02;;
44670;SDS011;48397;53.016;-2.260;2023-04-16T04:55:21;44.20;;;23.38;;
44670;SDS011;48397;53.016;-2.260;2023-04-16T04:57:50;47.47;;;22.30;;
44670;SDS011;48397;53.016;-2.260;2023-04-16T05:00:19;41.95;;;20.42;;
44670;SDS011;48397;53.016;-2.260;2023-04-16T05:02:52;41.00;;;20.20;;
44670;SDS011;48397;53.016;-2.260;2023-04-16T05:05:20;42.50;;;22.05;;
44670;SDS011;48397;53.016;-2.260;2023-04-16T05:07:48;42.55;;;21.85;;
44670;SDS011;48397;53.016;-2.260;2023-04-16T05:10:15;40.67;;;21.17;;
44670;SDS011;48397;53.016;-2.260;2023-04-16T05:12:43;38.15;;;18.77;;
44670;SDS011;48397;53.016;-2.260;2023-04-16T05:15:15;35.97;;;18.52;;
44670;SDS011;48397;53.016;-2.260;2023-04-16T05:17:42;39.13;;;20.88;;
44670;SDS011;48397;53.016;-2.260;2023-04-16T05:20:10;33.60;;;16.35;;
44670;SDS011;48397;53.016;-2.260;2023-04-16T05:22:38;25.40;;;14.50;;
44670;SDS011;48397;53.016;-2.260;2023-04-16T05:25:05;30.08;;;13.98;;
44670;SDS011;48397;53.016;-2.260;2023-04-16T05:27:33;31.88;;;16.23;;
44670;SDS011;48397;53.016;-2.260;2023-04-16T05:30:02;36.90;;;18.27;;
44670;SDS011;48397;53.016;-2.260;2023-04-16T05:32:30;34.92;;;18.10;;
44670;SDS011;48397;53.016;-2.260;2023-04-16T05:34:57;40.65;;;19.63;;
44670;SDS011;48397;53.016;-2.260;2023-04-16T05:37:25;43.53;;;20.38;;
44670;SDS011;48397;53.016;-2.260;2023-04-16T05:39:53;43.08;;;20.00;;
44670;SDS011;48397;53.016;-2.260;2023-04-16T05:42:20;40.90;;;20.73;;
44670;SDS011;48397;53.016;-2.260;2023-04-16T05:44:49;51.75;;;21.40;;
44670;SDS011;48397;53.016;-2.260;2023-04-16T05:47:18;41.20;;;20.35;;
44670;SDS011;48397;53.016;-2.260;2023-04-16T05:49:46;43.50;;;21.33;;
44670;SDS011;48397;53.016;-2.260;2023-04-16T05:52:13;43.33;;;21.30;;
44670;SDS011;48397;53.016;-2.260;2023-04-16T05:54:41;44.45;;;21.48;;
44670;SDS011;48397;53.016;-2.260;2023-04-16T05:57:08;47.83;;;22.48;;
44670;SDS011;48397;53.016;-2.260;2023-04-16T05:59:36;39.75;;;21.08;;
44670;SDS011;48397;53.016;-2.260;2023-04-16T06:02:04;41.67;;;21.92;;
44670;SDS011;48397;53.016;-2.260;2023-04-16T06:04:33;36.83;;;19.88;;
44670;SDS011;48397;53.016;-2.260;2023-04-16T06:07:01;45.85;;;21.65;;
44670;SDS011;48397;53.016;-2.260;2023-04-16T06:09:29;47.63;;;21.52;;
44670;SDS011;48397;53.016;-2.260;2023-04-16T06:11:57;42.67;;;22.42;;
44670;SDS011;48397;53.016;-2.260;2023-04-16T06:14:25;44.38;;;21.67;;
44670;SDS011;48397;53.016;-2.260;2023-04-16T06:16:53;41.60;;;21.42;;
44670;SDS011;48397;53.016;-2.260;2023-04-16T06:19:20;44.08;;;21.35;;
44670;SDS011;48397;53.016;-2.260;2023-04-16T06:21:48;43.00;;;21.30;;
44670;SDS011;48397;53.016;-2.260;2023-04-16T06:24:16;24.40;;;11.95;;
44670;SDS011;48397;53.016;-2.260;2023-04-16T06:29:11;18.83;;;9.85;;
44670;SDS011;48397;53.016;-2.260;2023-04-16T06:31:39;18.40;;;10.02;;
44670;SDS011;48397;53.016;-2.260;2023-04-16T06:34:07;18.50;;;11.25;;
44670;SDS011;48397;53.016;-2.260;2023-04-16T06:36:35;23.08;;;12.00;;
44670;SDS011;48397;53.016;-2.260;2023-04-16T06:39:03;22.55;;;12.55;;
44670;SDS011;48397;53.016;-2.260;2023-04-16T06:41:31;22.17;;;12.13;;
44670;SDS011;48397;53.016;-2.260;2023-04-16T06:43:58;24.67;;;13.35;;
44670;SDS011;48397;53.016;-2.260;2023-04-16T06:46:26;23.90;;;13.77;;
44670;SDS011;48397;53.016;-2.260;2023-04-16T06:48:54;18.77;;;10.48;;
44670;SDS011;48397;53.016;-2.260;2023-04-16T06:51:21;17.10;;;8.35;;
44670;SDS011;48397;53.016;-2.260;2023-04-16T06:53:49;10.48;;;6.15;;
44670;SDS011;48397;53.016;-2.260;2023-04-16T06:56:17;9.02;;;5.03;;
44670;SDS011;48397;53.016;-2.260;2023-04-16T06:58:44;11.07;;;4.78;;
44670;SDS011;48397;53.016;-2.260;2023-04-16T07:01:12;6.95;;;4.07;;
44670;SDS011;48397;53.016;-2.260;2023-04-16T07:03:40;9.10;;;3.67;;
44670;SDS011;48397;53.016;-2.260;2023-04-16T07:06:07;8.45;;;3.30;;
44670;SDS011;48397;53.016;-2.260;2023-04-16T07:08:35;6.93;;;3.53;;
44670;SDS011;48397;53.016;-2.260;2023-04-16T07:11:03;6.53;;;3.53;;
44670;SDS011;48397;53.016;-2.260;2023-04-16T07:15:58;7.47;;;4.25;;
44670;SDS011;48397;53.016;-2.260;2023-04-16T07:20:53;9.50;;;4.70;;
44670;SDS011;48397;53.016;-2.260;2023-04-16T07:23:21;9.00;;;4.18;;
44670;SDS011;48397;53.016;-2.260;2023-04-16T07:25:49;7.30;;;3.97;;
44670;SDS011;48397;53.016;-2.260;2023-04-16T07:28:16;8.25;;;4.47;;
44670;SDS011;48397;53.016;-2.260;2023-04-16T07:30:44;8.77;;;4.10;;
44670;SDS011;48397;53.016;-2.260;2023-04-16T07:33:11;8.65;;;3.95;;
44670;SDS011;48397;53.016;-2.260;2023-04-16T07:35:39;9.50;;;4.10;;
44670;SDS011;48397;53.016;-2.260;2023-04-16T07:38:07;7.82;;;3.47;;
44670;SDS011;48397;53.016;-2.260;2023-04-16T07:40:35;7.50;;;3.40;;
44670;SDS011;48397;53.016;-2.260;2023-04-16T07:43:02;4.10;;;2.50;;
44670;SDS011;48397;53.016;-2.260;2023-04-16T07:45:30;5.68;;;2.60;;
44670;SDS011;48397;53.016;-2.260;2023-04-16T07:47:58;2.58;;;1.45;;
44670;SDS011;48397;53.016;-2.260;2023-04-16T07:50:25;2.15;;;1.40;;
44670;SDS011;48397;53.016;-2.260;2023-04-16T07:52:53;4.00;;;1.70;;
44670;SDS011;48397;53.016;-2.260;2023-04-16T07:55:20;4.15;;;1.98;;
44670;SDS011;48397;53.016;-2.260;2023-04-16T07:57:48;4.82;;;2.30;;
44670;SDS011;48397;53.016;-2.260;2023-04-16T08:00:16;4.20;;;1.55;;
44670;SDS011;48397;53.016;-2.260;2023-04-16T08:02:43;3.47;;;1.35;;
44670;SDS011;48397;53.016;-2.260;2023-04-16T08:07:39;2.13;;;1.23;;
44670;SDS011;48397;53.016;-2.260;2023-04-16T08:10:07;2.75;;;1.20;;
44670;SDS011;48397;53.016;-2.260;2023-04-16T08:15:03;1.70;;;1.10;;
44670;SDS011;48397;53.016;-2.260;2023-04-16T08:17:31;2.47;;;1.40;;
44670;SDS011;48397;53.016;-2.260;2023-04-16T08:20:00;3.08;;;1.30;;
44670;SDS011;48397;53.016;-2.260;2023-04-16T08:22:28;4.35;;;1.50;;
44670;SDS011;48397;53.016;-2.260;2023-04-16T08:24:55;2.40;;;1.20;;
44670;SDS011;48397;53.016;-2.260;2023-04-16T08:27:23;3.15;;;1.45;;
44670;SDS011;48397;53.016;-2.260;2023-04-16T08:29:51;3.15;;;1.40;;
44670;SDS011;48397;53.016;-2.260;2023-04-16T08:32:18;3.55;;;1.38;;
44670;SDS011;48397;53.016;-2.260;2023-04-16T08:34:46;5.75;;;1.40;;
44670;SDS011;48397;53.016;-2.260;2023-04-16T08:37:14;4.65;;;1.20;;
44670;SDS011;48397;53.016;-2.260;2023-04-16T08:39:41;7.20;;;1.67;;
44670;SDS011;48397;53.016;-2.260;2023-04-16T08:47:35;7.10;;;1.45;;
44670;SDS011;48397;53.016;-2.260;2023-04-16T08:50:04;4.47;;;1.13;;
44670;SDS011;48397;53.016;-2.260;2023-04-16T08:52:32;2.95;;;1.45;;
44670;SDS011;48397;53.016;-2.260;2023-04-16T08:55:05;5.70;;;1.65;;
44670;SDS011;48397;53.016;-2.260;2023-04-16T08:57:45;4.68;;;1.50;;
44670;SDS011;48397;53.016;-2.260;2023-04-16T09:00:14;2.95;;;1.40;;
44670;SDS011;48397;53.016;-2.260;2023-04-16T09:02:42;4.05;;;1.55;;
44670;SDS011;48397;53.016;-2.260;2023-04-16T09:05:13;5.93;;;1.65;;
44670;SDS011;48397;53.016;-2.260;2023-04-16T09:07:46;3.65;;;1.77;;
44670;SDS011;48397;53.016;-2.260;2023-04-16T09:10:14;4.10;;;1.27;;
44670;SDS011;48397;53.016;-2.260;2023-04-16T09:12:42;3.85;;;1.45;;
44670;SDS011;48397;53.016;-2.260;2023-04-16T09:17:38;4.63;;;1.70;;
44670;SDS011;48397;53.016;-2.260;2023-04-16T09:20:07;6.32;;;1.60;;
44670;SDS011;48397;53.016;-2.260;2023-04-16T09:22:37;4.95;;;1.73;;
44670;SDS011;48397;53.016;-2.260;2023-04-16T09:25:08;5.65;;;2.10;;
44670;SDS011;48397;53.016;-2.260;2023-04-16T09:27:37;5.55;;;1.75;;
44670;SDS011;48397;53.016;-2.260;2023-04-16T09:30:18;7.20;;;2.28;;
44670;SDS011;48397;53.016;-2.260;2023-04-16T09:32:48;2.83;;;1.70;;
44670;SDS011;48397;53.016;-2.260;2023-04-16T09:35:19;3.88;;;1.95;;
44670;SDS011;48397;53.016;-2.260;2023-04-16T09:37:53;12.50;;;2.10;;
44670;SDS011;48397;53.016;-2.260;2023-04-16T09:40:23;5.65;;;1.85;;
44670;SDS011;48397;53.016;-2.260;2023-04-16T09:42:55;5.32;;;1.88;;
44670;SDS011;48397;53.016;-2.260;2023-04-16T09:45:24;4.57;;;1.60;;
44670;SDS011;48397;53.016;-2.260;2023-04-16T09:47:52;4.28;;;1.90;;
44670;SDS011;48397;53.016;-2.260;2023-04-16T09:50:29;3.92;;;1.65;;
44670;SDS011;48397;53.016;-2.260;2023-04-16T09:52:57;5.28;;;1.67;;
44670;SDS011;48397;53.016;-2.260;2023-04-16T09:55:29;4.28;;;1.27;;
44670;SDS011;48397;53.016;-2.260;2023-04-16T09:58:00;3.30;;;1.30;;
44670;SDS011;48397;53.016;-2.260;2023-04-16T10:00:28;5.45;;;1.48;;
44670;SDS011;48397;53.016;-2.260;2023-04-16T10:03:04;3.33;;;1.25;;
44670;SDS011;48397;53.016;-2.260;2023-04-16T10:05:33;2.25;;;1.17;;
44670;SDS011;48397;53.016;-2.260;2023-04-16T10:08:01;4.57;;;1.20;;
44670;SDS011;48397;53.016;-2.260;2023-04-16T10:10:29;3.53;;;1.33;;
44670;SDS011;48397;53.016;-2.260;2023-04-16T10:12:58;4.25;;;1.30;;
44670;SDS011;48397;53.016;-2.260;2023-04-16T10:15:26;3.55;;;1.30;;
44670;SDS011;48397;53.016;-2.260;2023-04-16T10:17:54;4.75;;;1.92;;
44670;SDS011;48397;53.016;-2.260;2023-04-16T10:20:24;4.15;;;1.70;;
44670;SDS011;48397;53.016;-2.260;2023-04-16T10:22:52;5.45;;;1.63;;
44670;SDS011;48397;53.016;-2.260;2023-04-16T10:25:20;3.85;;;2.13;;
44670;SDS011;48397;53.016;-2.260;2023-04-16T10:27:49;5.43;;;1.55;;
44670;SDS011;48397;53.016;-2.260;2023-04-16T10:30:17;2.80;;;1.17;;
44670;SDS011;48397;53.016;-2.260;2023-04-16T10:32:45;3.17;;;1.63;;
44670;SDS011;48397;53.016;-2.260;2023-04-16T10:37:42;2.33;;;1.33;;
44670;SDS011;48397;53.016;-2.260;2023-04-16T10:40:21;7.07;;;1.55;;
44670;SDS011;48397;53.016;-2.260;2023-04-16T10:42:57;7.53;;;1.60;;
44670;SDS011;48397;53.016;-2.260;2023-04-16T10:45:29;8.25;;;2.25;;
44670;SDS011;48397;53.016;-2.260;2023-04-16T10:48:04;5.32;;;1.60;;
44670;SDS011;48397;53.016;-2.260;2023-04-16T10:50:35;5.35;;;1.73;;
44670;SDS011;48397;53.016;-2.260;2023-04-16T10:53:37;6.18;;;1.80;;
44670;SDS011;48397;53.016;-2.260;2023-04-16T10:58:34;4.00;;;1.67;;
44670;SDS011;48397;53.016;-2.260;2023-04-16T11:01:12;6.70;;;1.63;;
44670;SDS011;48397;53.016;-2.260;2023-04-16T11:03:41;3.50;;;2.25;;
44670;SDS011;48397;53.016;-2.260;2023-04-16T11:06:13;4.93;;;2.05;;
44670;SDS011;48397;53.016;-2.260;2023-04-16T11:08:44;2.97;;;1.70;;
44670;SDS011;48397;53.016;-2.260;2023-04-16T11:11:15;5.78;;;2.17;;
44670;SDS011;48397;53.016;-2.260;2023-04-16T11:13:44;5.40;;;2.03;;
44670;SDS011;48397;53.016;-2.260;2023-04-16T11:16:12;5.85;;;2.30;;
44670;SDS011;48397;53.016;-2.260;2023-04-16T11:18:41;4.03;;;1.95;;
44670;SDS011;48397;53.016;-2.260;2023-04-16T11:21:17;7.53;;;2.15;;
44670;SDS011;48397;53.016;-2.260;2023-04-16T11:23:50;5.82;;;1.90;;
44670;SDS011;48397;53.016;-2.260;2023-04-16T11:26:28;5.18;;;1.90;;
44670;SDS011;48397;53.016;-2.260;2023-04-16T11:28:57;4.45;;;2.03;;
44670;SDS011;48397;53.016;-2.260;2023-04-16T11:31:26;6.95;;;2.00;;
44670;SDS011;48397;53.016;-2.260;2023-04-16T11:33:54;8.10;;;2.50;;
44670;SDS011;48397;53.016;-2.260;2023-04-16T11:36:22;6.50;;;1.98;;
44670;SDS011;48397;53.016;-2.260;2023-04-16T11:38:59;4.72;;;2.15;;
44670;SDS011;48397;53.016;-2.260;2023-04-16T11:41:28;7.30;;;2.10;;
44670;SDS011;48397;53.016;-2.260;2023-04-16T11:43:56;7.85;;;1.80;;
44670;SDS011;48397;53.016;-2.260;2023-04-16T11:46:36;7.05;;;1.67;;
44670;SDS011;48397;53.016;-2.260;2023-04-16T11:49:04;5.03;;;1.70;;
44670;SDS011;48397;53.016;-2.260;2023-04-16T11:51:32;5.20;;;1.80;;
44670;SDS011;48397;53.016;-2.260;2023-04-16T11:54:05;4.20;;;1.75;;
44670;SDS011;48397;53.016;-2.260;2023-04-16T11:56:37;5.55;;;1.80;;
44670;SDS011;48397;53.016;-2.260;2023-04-16T11:59:14;7.97;;;2.00;;
44670;SDS011;48397;53.016;-2.260;2023-04-16T12:01:47;6.07;;;2.33;;
44670;SDS011;48397;53.016;-2.260;2023-04-16T12:04:19;6.38;;;2.38;;
44670;SDS011;48397;53.016;-2.260;2023-04-16T12:09:41;9.55;;;2.22;;
44670;SDS011;48397;53.016;-2.260;2023-04-16T12:12:28;7.85;;;2.10;;
44670;SDS011;48397;53.016;-2.260;2023-04-16T12:14:58;7.75;;;2.10;;
44670;SDS011;48397;53.016;-2.260;2023-04-16T12:17:30;4.93;;;2.15;;
44670;SDS011;48397;53.016;-2.260;2023-04-16T12:19:59;5.65;;;1.98;;
44670;SDS011;48397;53.016;-2.260;2023-04-16T12:22:36;7.43;;;2.55;;
44670;SDS011;48397;53.016;-2.260;2023-04-16T12:25:07;6.60;;;2.63;;
44670;SDS011;48397;53.016;-2.260;2023-04-16T12:27:47;7.38;;;2.63;;
44670;SDS011;48397;53.016;-2.260;2023-04-16T12:30:21;9.90;;;2.72;;
44670;SDS011;48397;53.016;-2.260;2023-04-16T12:32:50;9.10;;;2.80;;
44670;SDS011;48397;53.016;-2.260;2023-04-16T12:35:37;6.82;;;2.72;;
44670;SDS011;48397;53.016;-2.260;2023-04-16T12:38:05;6.93;;;3.28;;
44670;SDS011;48397;53.016;-2.260;2023-04-16T12:43:01;6.57;;;2.50;;
44670;SDS011;48397;53.016;-2.260;2023-04-16T12:45:29;6.57;;;3.10;;
44670;SDS011;48397;53.016;-2.260;2023-04-16T12:47:57;5.85;;;2.67;;
44670;SDS011;48397;53.016;-2.260;2023-04-16T12:50:25;10.13;;;2.70;;
44670;SDS011;48397;53.016;-2.260;2023-04-16T12:52:55;6.10;;;2.80;;
44670;SDS011;48397;53.016;-2.260;2023-04-16T12:55:23;7.38;;;2.70;;
44670;SDS011;48397;53.016;-2.260;2023-04-16T12:57:51;4.88;;;2.65;;
44670;SDS011;48397;53.016;-2.260;2023-04-16T13:00:20;4.78;;;2.33;;
44670;SDS011;48397;53.016;-2.260;2023-04-16T13:02:47;11.18;;;3.05;;
44670;SDS011;48397;53.016;-2.260;2023-04-16T13:05:15;7.75;;;2.80;;
44670;SDS011;48397;53.016;-2.260;2023-04-16T13:07:45;5.45;;;2.75;;
44670;SDS011;48397;53.016;-2.260;2023-04-16T13:10:13;5.70;;;2.80;;
44670;SDS011;48397;53.016;-2.260;2023-04-16T13:12:40;4.93;;;2.72;;
44670;SDS011;48397;53.016;-2.260;2023-04-16T13:15:08;8.50;;;2.83;;
44670;SDS011;48397;53.016;-2.260;2023-04-16T13:17:36;6.13;;;3.03;;
44670;SDS011;48397;53.016;-2.260;2023-04-16T13:20:04;5.57;;;2.67;;
44670;SDS011;48397;53.016;-2.260;2023-04-16T13:22:32;6.93;;;3.00;;
44670;SDS011;48397;53.016;-2.260;2023-04-16T13:24:59;7.85;;;3.60;;
44670;SDS011;48397;53.016;-2.260;2023-04-16T13:27:27;9.00;;;3.60;;
44670;SDS011;48397;53.016;-2.260;2023-04-16T13:29:55;8.30;;;3.22;;
44670;SDS011;48397;53.016;-2.260;2023-04-16T13:32:22;5.75;;;3.20;;
44670;SDS011;48397;53.016;-2.260;2023-04-16T13:34:50;8.20;;;3.38;;
44670;SDS011;48397;53.016;-2.260;2023-04-16T13:37:18;8.65;;;3.60;;
44670;SDS011;48397;53.016;-2.260;2023-04-16T13:39:45;8.60;;;3.63;;
44670;SDS011;48397;53.016;-2.260;2023-04-16T13:42:13;9.10;;;3.58;;
44670;SDS011;48397;53.016;-2.260;2023-04-16T13:44:41;10.30;;;3.83;;
44670;SDS011;48397;53.016;-2.260;2023-04-16T13:47:08;6.82;;;3.35;;
44670;SDS011;48397;53.016;-2.260;2023-04-16T13:49:37;10.18;;;3.97;;
44670;SDS011;48397;53.016;-2.260;2023-04-16T13:52:04;8.95;;;4.00;;
44670;SDS011;48397;53.016;-2.260;2023-04-16T13:54:32;7.97;;;4.20;;
44670;SDS011;48397;53.016;-2.260;2023-04-16T13:57:00;10.15;;;3.70;;
44670;SDS011;48397;53.016;-2.260;2023-04-16T13:59:27;8.82;;;4.50;;
44670;SDS011;48397;53.016;-2.260;2023-04-16T14:01:55;13.00;;;3.90;;
44670;SDS011;48397;53.016;-2.260;2023-04-16T14:04:23;13.35;;;4.55;;
44670;SDS011;48397;53.016;-2.260;2023-04-16T14:06:51;9.40;;;4.38;;
44670;SDS011;48397;53.016;-2.260;2023-04-16T14:09:19;8.63;;;3.90;;
44670;SDS011;48397;53.016;-2.260;2023-04-16T14:11:46;10.25;;;4.13;;
44670;SDS011;48397;53.016;-2.260;2023-04-16T14:14:14;10.73;;;4.47;;
44670;SDS011;48397;53.016;-2.260;2023-04-16T14:16:42;10.68;;;4.05;;
44670;SDS011;48397;53.016;-2.260;2023-04-16T14:19:10;9.55;;;3.88;;
44670;SDS011;48397;53.016;-2.260;2023-04-16T14:21:38;12.43;;;4.18;;
44670;SDS011;48397;53.016;-2.260;2023-04-16T14:24:06;8.52;;;3.67;;
44670;SDS011;48397;53.016;-2.260;2023-04-16T14:26:35;9.00;;;3.70;;
44670;SDS011;48397;53.016;-2.260;2023-04-16T14:29:02;10.70;;;4.32;;
44670;SDS011;48397;53.016;-2.260;2023-04-16T14:31:31;10.82;;;4.00;;
44670;SDS011;48397;53.016;-2.260;2023-04-16T14:33:59;8.85;;;3.92;;
44670;SDS011;48397;53.016;-2.260;2023-04-16T14:36:27;10.23;;;3.88;;
44670;SDS011;48397;53.016;-2.260;2023-04-16T14:38:57;8.18;;;4.00;;
44670;SDS011;48397;53.016;-2.260;2023-04-16T14:41:24;10.13;;;3.47;;
44670;SDS011;48397;53.016;-2.260;2023-04-16T14:43:52;9.23;;;3.92;;
44670;SDS011;48397;53.016;-2.260;2023-04-16T14:46:19;7.10;;;3.40;;
44670;SDS011;48397;53.016;-2.260;2023-04-16T14:48:47;11.65;;;4.45;;
44670;SDS011;48397;53.016;-2.260;2023-04-16T14:51:15;11.40;;;4.00;;
44670;SDS011;48397;53.016;-2.260;2023-04-16T14:53:42;7.53;;;4.00;;
44670;SDS011;48397;53.016;-2.260;2023-04-16T14:56:10;9.63;;;3.92;;
44670;SDS011;48397;53.016;-2.260;2023-04-16T14:58:38;9.50;;;4.05;;
44670;SDS011;48397;53.016;-2.260;2023-04-16T15:01:08;11.13;;;4.20;;
44670;SDS011;48397;53.016;-2.260;2023-04-16T15:03:36;12.10;;;4.20;;
44670;SDS011;48397;53.016;-2.260;2023-04-16T15:06:05;8.38;;;3.80;;
44670;SDS011;48397;53.016;-2.260;2023-04-16T15:08:34;7.70;;;4.13;;
44670;SDS011;48397;53.016;-2.260;2023-04-16T15:11:02;11.30;;;4.82;;
44670;SDS011;48397;53.016;-2.260;2023-04-16T15:13:30;10.00;;;4.05;;
44670;SDS011;48397;53.016;-2.260;2023-04-16T15:16:00;12.82;;;5.53;;